Time;durP1;ratioP1;P1;durP2;ratioP2;P2;SDS_P1;SDS_P2;PMS_P1;PMS_P2;Temp;Humidity;BMP_temperature;BMP_pressure;BME280_temperature;BME280_humidity;BME280_pressure;Samples;Min_cycle;Max_cycle;Signal;HPM_P1;HPM_P2
2023/04/06 00:01:10;;;;;;;3.97;1.83;;;2.10;99.90;;;;;;6179011;23;20481;-80
2023/04/06 00:03:36;;;;;;;2.43;2.30;;;2.00;99.90;;;;;;6175439;23;20253;-80
2023/04/06 00:06:02;;;;;;;1.43;1.40;;;2.00;99.90;;;;;;6177281;23;20201;-79
2023/04/06 00:08:28;;;;;;;3.53;2.03;;;1.90;99.90;;;;;;6174980;23;20198;-81
2023/04/06 00:10:54;;;;;;;1.60;1.60;;;1.90;99.90;;;;;;6175389;23;20502;-82
2023/04/06 00:13:20;;;;;;;2.23;1.87;;;1.80;99.90;;;;;;6176851;23;20212;-82
2023/04/06 00:15:46;;;;;;;1.73;1.33;;;1.70;99.90;;;;;;6174254;23;20198;-81
2023/04/06 00:18:12;;;;;;;2.07;1.97;;;1.70;99.90;;;;;;6168739;23;20286;-85
2023/04/06 00:20:38;;;;;;;1.90;1.10;;;1.80;99.90;;;;;;6174620;23;20502;-80
2023/04/06 00:23:04;;;;;;;2.23;2.13;;;1.80;99.90;;;;;;6173732;23;20195;-81
2023/04/06 00:25:30;;;;;;;2.93;1.70;;;1.70;99.90;;;;;;6175231;23;20162;-80
2023/04/06 00:27:56;;;;;;;0.80;0.80;;;1.60;99.90;;;;;;6174575;23;20190;-81
2023/04/06 00:30:21;;;;;;;2.07;1.70;;;1.60;99.90;;;;;;6167383;23;20249;-84
2023/04/06 00:32:47;;;;;;;0.87;0.87;;;1.50;99.90;;;;;;6175273;23;20194;-81
2023/04/06 00:35:16;;;;;;;1.77;1.70;;;1.50;99.90;;;;;;6174592;23;20933;-81
2023/04/06 00:37:42;;;;;;;1.67;1.57;;;1.50;99.90;;;;;;6175899;23;20737;-84
2023/04/06 00:40:08;;;;;;;2.40;2.03;;;1.50;99.90;;;;;;6151099;23;20233;-80
2023/04/06 00:42:35;;;;;;;0.77;0.77;;;1.50;99.90;;;;;;6174592;23;20221;-84
2023/04/06 00:45:01;;;;;;;1.30;1.30;;;1.40;99.90;;;;;;6175193;23;20522;-80
2023/04/06 00:47:27;;;;;;;1.43;1.33;;;1.40;99.90;;;;;;6176112;23;20513;-82
2023/04/06 00:49:54;;;;;;;1.17;1.17;;;1.30;99.90;;;;;;6175695;23;20583;-84
2023/04/06 00:52:21;;;;;;;1.43;1.43;;;1.30;99.90;;;;;;6176720;23;20163;-84
2023/04/06 00:54:46;;;;;;;1.60;1.50;;;1.30;99.90;;;;;;6176234;23;20202;-80
2023/04/06 00:57:13;;;;;;;1.57;1.53;;;1.20;99.90;;;;;;6174897;23;20195;-80
2023/04/06 00:59:39;;;;;;;2.23;2.03;;;1.20;99.90;;;;;;6174261;23;20186;-82
2023/04/06 01:02:05;;;;;;;0.60;0.60;;;1.20;99.90;;;;;;6174235;23;20182;-80
2023/04/06 01:04:32;;;;;;;1.40;1.40;;;1.20;99.90;;;;;;6176021;23;20488;-80
2023/04/06 01:06:58;;;;;;;1.60;1.40;;;1.30;99.90;;;;;;6177001;23;20187;-83
2023/04/06 01:09:23;;;;;;;3.33;2.03;;;1.30;99.90;;;;;;6174176;23;20290;-81
2023/04/06 01:11:49;;;;;;;2.47;2.37;;;1.20;99.90;;;;;;6174748;23;20198;-82
2023/04/06 01:14:15;;;;;;;1.67;1.57;;;1.10;99.90;;;;;;6175776;23;20206;-80
2023/04/06 01:16:42;;;;;;;3.40;1.70;;;1.20;99.90;;;;;;6169278;23;20206;-80
2023/04/06 01:19:12;;;;;;;1.43;1.33;;;1.20;99.90;;;;;;6171853;23;20932;-84
2023/04/06 01:21:38;;;;;;;1.93;1.50;;;1.10;99.90;;;;;;6199197;23;20203;-84
2023/04/06 01:24:05;;;;;;;1.40;1.30;;;1.10;99.90;;;;;;6175992;23;20203;-81
2023/04/06 01:26:32;;;;;;;2.70;2.57;;;1.00;99.90;;;;;;6175270;23;20637;-81
2023/04/06 01:28:58;;;;;;;1.23;1.20;;;1.00;99.90;;;;;;6175711;23;20522;-81
2023/04/06 01:31:24;;;;;;;2.00;1.90;;;0.90;99.90;;;;;;6174587;23;20162;-80
2023/04/06 01:33:50;;;;;;;1.67;1.57;;;0.90;99.90;;;;;;6172871;23;20203;-80
2023/04/06 01:36:16;;;;;;;1.97;1.60;;;0.90;99.90;;;;;;6196819;23;20229;-80
2023/04/06 01:38:42;;;;;;;2.27;2.17;;;0.90;99.90;;;;;;6172760;23;20198;-81
2023/04/06 01:41:08;;;;;;;1.53;1.33;;;0.80;99.90;;;;;;6171229;23;20191;-85
2023/04/06 01:43:34;;;;;;;1.77;1.73;;;0.80;99.90;;;;;;6173418;23;20174;-80
2023/04/06 01:46:00;;;;;;;0.70;0.70;;;0.80;99.90;;;;;;6176506;23;20163;-80
2023/04/06 01:48:27;;;;;;;0.70;0.70;;;0.80;99.90;;;;;;6198837;23;20194;-82
2023/04/06 01:50:54;;;;;;;1.57;1.53;;;0.70;99.90;;;;;;6175490;23;20217;-79
2023/04/06 01:53:20;;;;;;;0.77;0.77;;;0.70;99.90;;;;;;6199045;23;20640;-83
2023/04/06 01:55:45;;;;;;;1.00;1.00;;;0.70;99.90;;;;;;6199538;23;20182;-84
2023/04/06 01:58:12;;;;;;;4.87;2.60;;;0.50;99.90;;;;;;6175500;23;20567;-80
2023/04/06 02:00:38;;;;;;;1.70;1.60;;;0.50;99.90;;;;;;6148910;23;20191;-80
2023/04/06 02:03:03;;;;;;;1.93;1.83;;;0.50;99.90;;;;;;6174674;23;20202;-83
2023/04/06 02:05:31;;;;;;;2.00;1.30;;;0.50;99.90;;;;;;6175079;23;20195;-81
2023/04/06 02:07:57;;;;;;;1.10;1.10;;;0.60;99.90;;;;;;6198731;23;21030;-81
2023/04/06 02:10:24;;;;;;;1.57;1.47;;;0.60;99.90;;;;;;6174943;23;20326;-83
2023/04/06 02:12:50;;;;;;;0.60;0.60;;;0.60;99.90;;;;;;6172373;23;20191;-80
2023/04/06 02:15:16;;;;;;;1.70;1.60;;;0.60;99.90;;;;;;6194930;23;20217;-84
2023/04/06 02:17:42;;;;;;;2.03;1.93;;;0.60;99.90;;;;;;6205924;23;20613;-84
2023/04/06 02:20:08;;;;;;;0.87;0.80;;;0.60;99.90;;;;;;6207435;23;20344;-83
2023/04/06 02:22:35;;;;;;;4.10;1.90;;;0.60;99.90;;;;;;6181140;23;20500;-82
2023/04/06 02:25:01;;;;;;;1.27;1.27;;;0.60;99.90;;;;;;6232077;23;20158;-82
2023/04/06 02:27:27;;;;;;;1.63;1.57;;;0.60;99.90;;;;;;6205540;23;20186;-80
2023/04/06 02:29:53;;;;;;;2.30;1.57;;;0.60;99.90;;;;;;6180977;23;20197;-83
2023/04/06 02:32:19;;;;;;;1.50;1.33;;;0.70;99.90;;;;;;6207269;23;20201;-81
2023/04/06 02:34:45;;;;;;;3.63;1.83;;;0.70;99.90;;;;;;6205362;23;20182;-82
2023/04/06 02:37:10;;;;;;;1.90;1.80;;;0.70;99.90;;;;;;6205670;23;20348;-82
2023/04/06 02:39:36;;;;;;;2.60;2.40;;;0.80;99.90;;;;;;6229896;23;20240;-84
2023/04/06 02:42:02;;;;;;;1.90;1.73;;;0.90;99.90;;;;;;6207203;23;20197;-80
2023/04/06 02:44:27;;;;;;;1.10;1.00;;;1.00;99.90;;;;;;6207310;23;20942;-80
2023/04/06 02:46:53;;;;;;;0.87;0.87;;;1.10;99.90;;;;;;6207297;23;20935;-83
2023/04/06 02:49:19;;;;;;;0.70;0.70;;;1.10;99.90;;;;;;6181906;23;20154;-80
2023/04/06 02:51:45;;;;;;;1.63;1.53;;;1.00;99.90;;;;;;6206867;23;20194;-80
2023/04/06 02:54:11;;;;;;;3.50;1.60;;;1.00;99.90;;;;;;6207275;23;20230;-81
2023/04/06 02:56:36;;;;;;;2.13;1.33;;;1.10;99.90;;;;;;6206668;23;20190;-80
2023/04/06 02:59:02;;;;;;;1.33;1.23;;;1.10;99.90;;;;;;6205998;23;20190;-82
2023/04/06 03:01:28;;;;;;;1.60;1.53;;;1.10;99.90;;;;;;6231656;23;20162;-81
2023/04/06 03:03:53;;;;;;;1.30;1.20;;;1.20;99.90;;;;;;6207316;23;20206;-81
2023/04/06 03:06:19;;;;;;;0.90;0.90;;;1.30;99.90;;;;;;6181374;23;20194;-81
2023/04/06 03:08:45;;;;;;;1.37;1.30;;;1.30;99.90;;;;;;6206747;23;20582;-82
2023/04/06 03:11:11;;;;;;;0.60;0.60;;;1.20;99.90;;;;;;6207055;23;20693;-87
2023/04/06 03:13:38;;;;;;;2.37;2.17;;;1.20;99.90;;;;;;6205507;23;20198;-81
2023/04/06 03:16:05;;;;;;;0.83;0.83;;;1.20;99.90;;;;;;6208134;23;20166;-80
2023/04/06 03:18:31;;;;;;;0.90;0.90;;;1.20;99.90;;;;;;6207492;23;20292;-83
2023/04/06 03:20:57;;;;;;;0.93;0.93;;;1.20;99.90;;;;;;6206833;23;20202;-81
2023/04/06 03:23:23;;;;;;;1.87;1.57;;;1.10;99.90;;;;;;6208738;23;20273;-87
2023/04/06 03:25:48;;;;;;;1.70;1.60;;;1.00;99.90;;;;;;6207619;23;20966;-84
2023/04/06 03:28:15;;;;;;;1.47;1.47;;;0.90;99.90;;;;;;6207542;23;20668;-87
2023/04/06 03:30:41;;;;;;;1.30;1.30;;;0.80;99.90;;;;;;6209676;23;20194;-85
2023/04/06 03:33:07;;;;;;;0.83;0.83;;;0.80;99.90;;;;;;6209014;23;20197;-82
2023/04/06 03:35:33;;;;;;;2.13;2.03;;;0.90;99.90;;;;;;6208030;23;20212;-83
2023/04/06 03:37:59;;;;;;;1.20;1.20;;;0.90;99.90;;;;;;6206802;23;20283;-83
2023/04/06 03:40:25;;;;;;;1.00;1.00;;;0.90;99.90;;;;;;6233400;23;20165;-81
2023/04/06 03:42:51;;;;;;;1.37;1.27;;;0.90;99.90;;;;;;6209430;23;20194;-82
2023/04/06 03:45:16;;;;;;;2.00;1.27;;;0.90;99.90;;;;;;6183150;23;20200;-82
2023/04/06 03:47:42;;;;;;;2.87;2.23;;;0.90;99.90;;;;;;6208135;23;20248;-85
2023/04/06 03:50:08;;;;;;;1.17;1.07;;;0.90;99.90;;;;;;6232285;23;20572;-81
2023/04/06 03:52:35;;;;;;;0.70;0.70;;;0.90;99.90;;;;;;6205880;23;20166;-82
2023/04/06 03:55:01;;;;;;;1.73;1.63;;;0.80;99.90;;;;;;6232000;23;20224;-83
2023/04/06 03:57:27;;;;;;;2.67;2.17;;;0.90;99.90;;;;;;6207778;23;20202;-82
2023/04/06 03:59:53;;;;;;;0.90;0.90;;;0.80;99.90;;;;;;6205799;23;20514;-81
2023/04/06 04:02:18;;;;;;;2.53;0.90;;;0.80;99.90;;;;;;6205927;23;20575;-84
2023/04/06 04:04:44;;;;;;;1.17;1.13;;;0.80;99.90;;;;;;6206205;23;20173;-81
2023/04/06 04:07:10;;;;;;;1.70;1.60;;;0.70;99.90;;;;;;6206883;23;20154;-80
2023/04/06 04:09:36;;;;;;;0.80;0.80;;;0.70;99.90;;;;;;6205135;23;20190;-83
2023/04/06 04:12:02;;;;;;;1.10;1.10;;;0.70;99.90;;;;;;6205168;23;20194;-82
2023/04/06 04:14:28;;;;;;;2.43;2.33;;;0.80;99.90;;;;;;6202886;23;20712;-87
2023/04/06 04:16:54;;;;;;;1.40;1.30;;;0.70;99.90;;;;;;6201429;23;20220;-81
2023/04/06 04:19:20;;;;;;;1.53;1.47;;;0.70;99.90;;;;;;6201019;23;20194;-83
2023/04/06 04:21:46;;;;;;;1.07;1.07;;;0.80;99.90;;;;;;6173513;23;20225;-85
2023/04/06 04:24:13;;;;;;;1.57;1.47;;;0.90;99.90;;;;;;6170712;23;20293;-81
2023/04/06 04:26:40;;;;;;;0.73;0.73;;;0.90;99.90;;;;;;6195680;23;20537;-82
2023/04/06 04:29:06;;;;;;;0.90;0.90;;;0.90;99.90;;;;;;6171329;23;20656;-81
2023/04/06 04:31:32;;;;;;;2.10;1.97;;;0.90;99.90;;;;;;6173115;23;20150;-82
2023/04/06 04:33:59;;;;;;;1.60;1.50;;;0.90;99.90;;;;;;6172182;23;20201;-83
2023/04/06 04:36:25;;;;;;;1.30;1.00;;;0.90;99.90;;;;;;6174407;23;20209;-82
2023/04/06 04:38:51;;;;;;;1.30;1.30;;;0.80;99.90;;;;;;6175788;23;20201;-81
2023/04/06 04:41:18;;;;;;;1.30;1.00;;;0.80;99.90;;;;;;6176096;23;20261;-81
2023/04/06 04:43:43;;;;;;;1.20;1.10;;;0.80;99.90;;;;;;6199876;23;20207;-82
2023/04/06 04:46:09;;;;;;;1.83;1.73;;;0.80;99.90;;;;;;6175421;23;20151;-85
2023/04/06 04:48:35;;;;;;;1.33;1.23;;;0.80;99.90;;;;;;6168788;23;20266;-83
2023/04/06 04:51:01;;;;;;;1.47;1.37;;;0.80;99.90;;;;;;6173430;23;20206;-82
2023/04/06 04:53:27;;;;;;;1.47;1.43;;;0.80;99.90;;;;;;6198064;23;20560;-82
2023/04/06 04:55:53;;;;;;;1.40;1.40;;;0.90;99.90;;;;;;6175589;23;20718;-82
2023/04/06 04:58:19;;;;;;;1.13;1.13;;;1.00;99.90;;;;;;6173924;23;20325;-82
2023/04/06 05:00:48;;;;;;;1.40;1.30;;;1.10;99.90;;;;;;6173302;23;20772;-84
2023/04/06 05:03:22;;;;;;;2.50;1.40;;;1.20;99.90;;;;;;6173729;23;20202;-88
2023/04/06 05:05:49;;;;;;;1.50;0.93;;;1.20;99.90;;;;;;6173480;23;20691;-81
2023/04/06 05:08:15;;;;;;;2.50;2.30;;;1.10;99.90;;;;;;6197911;23;20512;-86
2023/04/06 05:10:41;;;;;;;0.97;0.97;;;1.10;99.90;;;;;;6175360;23;20654;-86
2023/04/06 05:13:07;;;;;;;1.73;1.63;;;1.20;99.90;;;;;;6175249;23;20167;-84
2023/04/06 05:15:38;;;;;;;3.33;2.30;;;1.20;99.90;;;;;;6174611;23;20310;-83
2023/04/06 05:18:07;;;;;;;4.43;2.07;;;1.40;99.90;;;;;;6172756;23;20215;-89
2023/04/06 05:20:34;;;;;;;3.10;1.90;;;1.70;99.90;;;;;;6174017;23;20207;-88
2023/04/06 05:23:00;;;;;;;1.57;1.47;;;2.10;99.90;;;;;;6175106;23;20187;-85
2023/04/06 05:25:26;;;;;;;3.60;1.97;;;2.40;99.90;;;;;;6173658;23;20228;-83
2023/04/06 05:27:52;;;;;;;2.13;1.37;;;2.30;99.90;;;;;;6172619;23;20565;-86
2023/04/06 05:30:18;;;;;;;1.60;1.50;;;2.30;99.90;;;;;;6173046;23;20198;-84
2023/04/06 05:32:44;;;;;;;1.53;1.53;;;2.20;99.90;;;;;;6173183;23;20625;-85
2023/04/06 05:35:11;;;;;;;1.73;1.60;;;2.30;99.90;;;;;;6174281;23;20608;-89
2023/04/06 05:37:37;;;;;;;2.30;2.20;;;2.70;99.90;;;;;;6174475;23;20155;-85
2023/04/06 05:40:03;;;;;;;2.67;2.50;;;2.90;99.90;;;;;;6149551;23;20166;-84
2023/04/06 05:42:40;;;;;;;2.30;1.63;;;3.10;99.90;;;;;;6174664;23;20200;-88
2023/04/06 05:45:11;;;;;;;1.33;1.27;;;3.50;99.90;;;;;;6175361;23;20196;-90
2023/04/06 05:47:39;;;;;;;1.77;1.67;;;3.90;99.90;;;;;;6174977;23;20190;-84
2023/04/06 05:50:05;;;;;;;1.00;1.00;;;3.70;99.90;;;;;;6197838;23;20218;-84
2023/04/06 05:52:31;;;;;;;2.20;2.00;;;3.50;99.90;;;;;;6177403;23;20182;-85
2023/04/06 05:54:57;;;;;;;2.93;2.00;;;3.50;99.90;;;;;;6175241;23;20199;-84
2023/04/06 05:57:23;;;;;;;2.83;2.23;;;3.70;99.90;;;;;;6175589;23;20451;-87
2023/04/06 05:59:48;;;;;;;2.37;1.47;;;4.50;99.90;;;;;;6176079;23;20198;-83
2023/04/06 06:02:14;;;;;;;1.47;1.23;;;5.20;99.90;;;;;;6176597;23;20645;-84
2023/04/06 06:04:40;;;;;;;3.90;2.13;;;5.40;99.90;;;;;;6174584;23;20166;-84
2023/04/06 06:07:06;;;;;;;1.67;1.57;;;5.10;99.90;;;;;;6177139;23;20292;-84
2023/04/06 06:09:31;;;;;;;3.17;2.50;;;5.20;99.90;;;;;;6175065;23;20633;-83
2023/04/06 06:11:57;;;;;;;4.47;2.33;;;5.70;99.90;;;;;;6174809;23;20210;-84
2023/04/06 06:14:23;;;;;;;2.90;2.33;;;5.70;99.90;;;;;;6175090;23;20206;-82
2023/04/06 06:16:49;;;;;;;2.33;2.07;;;5.90;99.90;;;;;;6174855;23;20379;-83
2023/04/06 06:19:14;;;;;;;5.37;2.13;;;5.80;99.90;;;;;;6175224;23;20237;-82
2023/04/06 06:21:40;;;;;;;2.03;1.90;;;6.40;99.90;;;;;;6176309;23;20621;-82
2023/04/06 06:24:07;;;;;;;2.67;2.50;;;6.80;99.90;;;;;;6175263;23;20274;-84
2023/04/06 06:26:35;;;;;;;3.07;2.77;;;6.60;99.90;;;;;;6174289;23;20196;-86
2023/04/06 06:29:01;;;;;;;4.03;2.00;;;6.20;99.90;;;;;;6174236;23;20197;-84
2023/04/06 06:31:26;;;;;;;3.63;2.90;;;5.80;99.90;;;;;;6200642;23;20464;-85
2023/04/06 06:33:52;;;;;;;2.27;1.83;;;5.50;99.90;;;;;;6173948;23;20438;-84
2023/04/06 06:36:18;;;;;;;6.87;3.73;;;5.30;99.90;;;;;;6174586;23;20199;-83
2023/04/06 06:38:44;;;;;;;1.90;1.80;;;5.30;99.90;;;;;;6176027;23;20194;-85
2023/04/06 06:41:10;;;;;;;2.00;1.60;;;4.90;99.90;;;;;;6174732;23;20191;-83
2023/04/06 06:43:36;;;;;;;3.20;2.87;;;4.80;99.90;;;;;;6173904;23;20165;-85
2023/04/06 06:46:02;;;;;;;2.27;2.07;;;4.80;99.90;;;;;;6151056;23;20169;-83
2023/04/06 06:48:28;;;;;;;3.33;2.20;;;4.70;99.90;;;;;;6199351;23;20218;-83
2023/04/06 06:50:54;;;;;;;3.87;3.47;;;5.30;99.90;;;;;;6174624;23;20190;-89
2023/04/06 06:53:20;;;;;;;2.87;2.33;;;6.30;99.90;;;;;;6174586;23;20249;-86
2023/04/06 06:55:48;;;;;;;2.30;2.10;;;7.10;99.90;;;;;;6174906;23;20277;-85
2023/04/06 06:58:14;;;;;;;4.43;4.00;;;7.40;99.90;;;;;;6175751;23;20165;-83
2023/04/06 07:00:40;;;;;;;5.40;3.00;;;7.70;99.90;;;;;;6176304;23;20202;-91
2023/04/06 07:03:06;;;;;;;6.73;5.33;;;7.90;99.90;;;;;;6176106;23;20216;-82
2023/04/06 07:05:32;;;;;;;2.30;2.20;;;8.60;99.90;;;;;;6174261;23;20190;-84
2023/04/06 07:07:58;;;;;;;3.20;2.90;;;8.70;99.90;;;;;;6176289;23;20261;-83
2023/04/06 07:10:24;;;;;;;3.07;2.17;;;9.30;99.90;;;;;;6175067;23;20379;-82
2023/04/06 07:12:50;;;;;;;3.53;3.23;;;9.20;99.90;;;;;;6199312;23;20286;-87
2023/04/06 07:15:17;;;;;;;3.13;2.30;;;9.00;99.90;;;;;;6175826;23;20206;-82
2023/04/06 07:17:44;;;;;;;2.03;1.87;;;9.20;99.90;;;;;;6175379;23;20207;-86
2023/04/06 07:20:11;;;;;;;6.27;3.63;;;9.50;99.90;;;;;;6176029;23;20198;-82
2023/04/06 07:22:38;;;;;;;6.07;3.73;;;9.40;99.90;;;;;;6176005;23;20187;-85
2023/04/06 07:25:04;;;;;;;2.53;2.03;;;9.30;99.90;;;;;;6174524;23;20167;-84
2023/04/06 07:27:30;;;;;;;7.10;4.07;;;8.30;99.90;;;;;;6199183;23;20195;-84
2023/04/06 07:29:56;;;;;;;2.97;2.77;;;7.80;99.90;;;;;;6175039;23;20233;-87
2023/04/06 07:32:22;;;;;;;4.80;3.20;;;7.70;99.90;;;;;;6173360;23;20218;-84
2023/04/06 07:34:47;;;;;;;4.43;3.70;;;7.50;99.90;;;;;;6175097;23;20599;-85
2023/04/06 07:37:13;;;;;;;2.57;2.03;;;7.50;99.90;;;;;;6173841;23;20591;-84
2023/04/06 07:39:40;;;;;;;3.90;2.90;;;7.50;99.90;;;;;;6198335;23;20195;-84
2023/04/06 07:42:06;;;;;;;3.67;2.40;;;7.50;99.90;;;;;;6175275;23;20197;-85
2023/04/06 07:44:32;;;;;;;3.70;2.13;;;7.60;99.90;;;;;;6173262;23;20621;-86
2023/04/06 07:46:57;;;;;;;3.30;1.93;;;7.80;99.90;;;;;;6173305;23;21184;-83
2023/04/06 07:49:23;;;;;;;6.00;4.17;;;8.20;99.90;;;;;;6174202;23;20166;-85
2023/04/06 07:51:49;;;;;;;1.97;1.83;;;8.50;99.90;;;;;;6173645;23;20618;-83
2023/04/06 07:54:15;;;;;;;4.93;2.17;;;8.70;99.90;;;;;;6174798;23;20207;-84
2023/04/06 07:56:41;;;;;;;2.33;2.03;;;8.60;99.90;;;;;;6158389;23;20261;-83
2023/04/06 07:59:06;;;;;;;3.57;3.27;;;8.60;99.90;;;;;;6182406;23;20186;-84
2023/04/06 08:01:32;;;;;;;4.67;3.23;;;8.80;99.90;;;;;;6203434;23;20475;-80
2023/04/06 08:03:58;;;;;;;3.00;2.70;;;8.90;99.90;;;;;;6204010;23;20161;-85
2023/04/06 08:06:24;;;;;;;5.97;3.00;;;9.20;99.90;;;;;;6205189;23;20252;-84
2023/04/06 08:08:50;;;;;;;2.80;1.63;;;9.70;99.90;;;;;;6204468;23;20225;-87
2023/04/06 08:11:16;;;;;;;3.83;1.70;;;9.80;99.90;;;;;;6205367;23;20190;-83
2023/04/06 08:13:42;;;;;;;2.23;2.07;;;9.90;99.90;;;;;;6202459;23;20154;-85
2023/04/06 08:16:08;;;;;;;5.70;3.00;;;10.20;99.90;;;;;;6229203;23;20154;-84
2023/04/06 08:18:33;;;;;;;2.10;1.90;;;10.70;99.90;;;;;;6227873;23;20214;-83
2023/04/06 08:20:59;;;;;;;1.90;1.80;;;10.50;99.90;;;;;;6204839;23;20647;-83
2023/04/06 08:23:25;;;;;;;5.70;2.37;;;10.30;99.90;;;;;;6204316;23;20563;-83
2023/04/06 08:25:54;;;;;;;3.00;2.53;;;10.10;99.90;;;;;;6203296;23;20159;-84
2023/04/06 08:28:21;;;;;;;7.00;4.33;;;9.90;99.90;;;;;;6203675;23;20221;-84
2023/04/06 08:30:47;;;;;;;3.67;3.30;;;9.80;99.90;;;;;;6204591;23;20212;-87
2023/04/06 08:33:13;;;;;;;3.70;2.77;;;10.10;99.90;;;;;;6204830;23;20243;-83
2023/04/06 08:35:39;;;;;;;5.70;2.27;;;10.20;99.90;;;;;;6202571;23;20534;-84
2023/04/06 08:38:06;;;;;;;2.07;1.87;;;10.00;99.90;;;;;;6228270;23;20200;-84
2023/04/06 08:40:39;;;;;;;3.97;3.13;;;10.20;99.90;;;;;;6204585;23;20235;-85
2023/04/06 08:43:09;;;;;;;2.60;2.40;;;10.20;99.90;;;;;;6205202;23;20195;-83
2023/04/06 08:45:35;;;;;;;2.57;2.43;;;9.80;99.90;;;;;;6204254;23;20193;-83
2023/04/06 08:48:03;;;;;;;2.17;1.63;;;9.70;99.90;;;;;;6204468;23;20260;-84
2023/04/06 08:50:30;;;;;;;5.10;3.17;;;9.60;99.90;;;;;;6204574;23;20196;-84
2023/04/06 08:52:56;;;;;;;2.30;2.10;;;9.70;99.90;;;;;;6228158;23;20186;-86
2023/04/06 08:55:22;;;;;;;2.20;1.97;;;9.70;99.90;;;;;;6204653;23;20655;-84
2023/04/06 08:57:48;;;;;;;4.93;3.80;;;9.90;99.90;;;;;;6202336;23;20296;-84
2023/04/06 09:00:15;;;;;;;4.23;3.60;;;10.10;99.90;;;;;;6202614;23;20304;-86
2023/04/06 09:02:45;;;;;;;2.47;1.93;;;10.30;99.90;;;;;;6202762;23;20189;-85
2023/04/06 09:05:12;;;;;;;5.13;2.60;;;10.50;99.90;;;;;;6228156;23;20465;-84
2023/04/06 09:07:38;;;;;;;2.50;2.23;;;10.50;99.90;;;;;;6204583;23;20153;-86
2023/04/06 09:10:05;;;;;;;4.43;2.80;;;10.60;99.90;;;;;;6205169;23;20150;-85
2023/04/06 09:12:32;;;;;;;6.97;3.33;;;10.50;99.90;;;;;;6228158;23;20198;-85
2023/04/06 09:14:58;;;;;;;3.17;2.97;;;10.40;99.90;;;;;;6227558;23;20667;-83
2023/04/06 09:17:29;;;;;;;6.40;3.10;;;10.60;99.90;;;;;;6227600;23;20714;-84
2023/04/06 09:19:56;;;;;;;4.63;3.73;;;10.60;99.90;;;;;;6204061;23;20197;-86
2023/04/06 09:22:22;;;;;;;3.93;3.27;;;10.50;99.90;;;;;;6229315;23;20162;-84
2023/04/06 09:24:52;;;;;;;10.50;2.77;;;10.50;99.90;;;;;;6205543;23;20224;-89
2023/04/06 09:27:30;;;;;;;3.77;3.33;;;10.50;99.90;;;;;;6230857;23;20194;-85
2023/04/06 09:30:07;;;;;;;7.40;3.33;;;10.60;99.90;;;;;;6207035;23;20194;-86
2023/04/06 09:32:43;;;;;;;6.90;5.40;;;11.00;99.90;;;;;;6207277;23;20220;-84
2023/04/06 09:35:09;;;;;;;4.47;3.10;;;11.20;99.90;;;;;;6206804;23;20255;-85
2023/04/06 09:37:35;;;;;;;5.67;2.77;;;11.00;99.90;;;;;;6205785;23;20164;-88
2023/04/06 09:40:05;;;;;;;4.77;3.27;;;11.10;99.90;;;;;;6207918;23;20233;-84
2023/04/06 09:42:31;;;;;;;5.50;3.57;;;11.40;99.90;;;;;;6207242;23;20655;-84
2023/04/06 09:44:57;;;;;;;4.57;3.10;;;11.50;99.90;;;;;;6207325;23;20304;-86
2023/04/06 09:47:25;;;;;;;5.97;3.17;;;11.90;99.90;;;;;;6206526;23;20186;-85
2023/04/06 09:49:57;;;;;;;9.47;4.40;;;12.20;99.90;;;;;;6206930;23;20159;-84
2023/04/06 09:52:27;;;;;;;5.00;2.87;;;12.60;99.90;;;;;;6205822;23;20157;-84
2023/04/06 09:54:59;;;;;;;10.10;3.77;;;12.40;99.90;;;;;;6206623;23;20227;-85
2023/04/06 09:57:31;;;;;;;6.67;5.00;;;12.30;99.90;;;;;;6206963;23;20202;-84
2023/04/06 10:00:11;;;;;;;6.23;3.43;;;12.40;99.90;;;;;;6207035;23;20201;-89
2023/04/06 10:02:50;;;;;;;8.37;5.20;;;12.70;99.90;;;;;;6230843;23;20686;-84
2023/04/06 10:05:28;;;;;;;5.67;3.77;;;12.40;99.90;;;;;;6206539;23;20221;-87
2023/04/06 10:08:01;;;;;;;5.97;4.20;;;12.10;99.90;;;;;;6206919;23;20197;-83
2023/04/06 10:10:28;;;;;;;9.43;4.90;;;12.20;99.90;;;;;;6207724;23;20204;-88
2023/04/06 10:12:55;;;;;;;5.97;3.67;;;12.00;99.90;;;;;;6206605;23;20636;-85
2023/04/06 10:15:21;;;;;;;7.80;5.07;;;12.00;99.90;;;;;;6205314;23;20278;-91
2023/04/06 10:17:48;;;;;;;4.50;4.10;;;11.80;99.90;;;;;;6230473;23;20580;-90
2023/04/06 10:20:23;;;;;;;6.10;4.73;;;12.20;99.90;;;;;;6205474;23;20201;-85
2023/04/06 10:23:08;;;;;;;6.93;3.97;;;12.60;99.90;;;;;;6207282;23;20177;-85
2023/04/06 10:25:34;;;;;;;7.37;4.97;;;12.80;99.90;;;;;;6206507;23;20150;-85
2023/04/06 10:28:07;;;;;;;7.40;4.93;;;13.10;99.90;;;;;;6206258;23;20189;-89
2023/04/06 10:30:42;;;;;;;6.47;4.60;;;12.90;99.90;;;;;;6230578;23;20198;-84
2023/04/06 10:33:19;;;;;;;12.60;5.93;;;12.70;99.90;;;;;;6206644;23;20189;-85
2023/04/06 10:35:45;;;;;;;9.23;5.43;;;12.70;99.90;;;;;;6230176;23;20205;-85
2023/04/06 10:38:13;;;;;;;4.57;4.13;;;12.80;99.90;;;;;;6230250;23;20647;-86
2023/04/06 10:40:42;;;;;;;7.57;5.37;;;13.10;99.90;;;;;;6204751;23;20161;-88
2023/04/06 10:43:12;;;;;;;9.50;6.00;;;13.00;99.90;;;;;;6206040;23;20163;-83
2023/04/06 10:45:40;;;;;;;9.33;6.27;;;13.10;99.90;;;;;;6204797;23;20197;-85
2023/04/06 10:48:16;;;;;;;7.77;4.97;;;13.70;99.90;;;;;;6205083;23;20220;-83
2023/04/06 10:50:48;;;;;;;7.57;4.77;;;13.30;99.90;;;;;;6206614;23;20200;-86
2023/04/06 10:53:25;;;;;;;11.47;5.60;;;12.80;99.90;;;;;;6206608;23;20590;-87
2023/04/06 10:55:52;;;;;;;10.77;6.30;;;13.00;99.90;;;;;;6230190;23;20571;-83
2023/04/06 10:58:18;;;;;;;5.10;4.10;;;12.80;99.90;;;;;;6205065;23;20241;-84
2023/04/06 11:00:48;;;;;;;9.00;5.57;;;12.60;99.90;;;;;;6206646;23;20637;-85
2023/04/06 11:03:15;;;;;;;5.73;3.90;;;12.60;99.90;;;;;;6205166;23;20193;-87
2023/04/06 11:05:48;;;;;;;8.73;5.90;;;12.70;99.90;;;;;;6205468;23;20232;-87
2023/04/06 11:08:33;;;;;;;9.67;5.37;;;12.50;99.90;;;;;;6206111;23;20214;-83
2023/04/06 11:11:06;;;;;;;8.37;6.03;;;12.60;99.90;;;;;;6229345;23;20186;-83
2023/04/06 11:13:41;;;;;;;9.63;4.87;;;12.70;99.90;;;;;;6206149;23;20154;-85
2023/04/06 11:16:15;;;;;;;8.70;5.67;;;13.20;99.90;;;;;;6174050;23;20191;-83
2023/04/06 11:18:55;;;;;;;12.33;6.30;;;13.50;99.90;;;;;;6175815;23;20221;-87
2023/04/06 11:21:38;;;;;;;9.77;4.47;;;13.50;99.90;;;;;;6198710;23;20253;-88
2023/04/06 11:24:11;;;;;;;10.37;6.20;;;13.40;99.90;;;;;;6199548;23;20217;-84
2023/04/06 11:26:58;;;;;;;14.73;7.23;;;13.60;99.90;;;;;;6175462;23;20195;-85
2023/04/06 11:29:29;;;;;;;9.60;5.60;;;13.60;99.90;;;;;;6175468;23;20216;-89
2023/04/06 11:31:59;;;;;;;13.07;6.73;;;13.50;99.90;;;;;;6175317;23;20193;-86
2023/04/06 11:34:27;;;;;;;15.50;8.17;;;13.20;99.90;;;;;;6200542;23;20245;-88
2023/04/06 11:36:59;;;;;;;9.03;5.20;;;13.50;99.90;;;;;;6199678;23;20203;-89
2023/04/06 11:39:27;;;;;;;11.37;7.00;;;13.10;99.90;;;;;;6175381;23;20198;-89
2023/04/06 11:42:02;;;;;;;11.43;7.03;;;12.70;99.90;;;;;;6174371;23;20194;-84
2023/04/06 11:44:49;;;;;;;12.33;6.33;;;12.90;99.90;;;;;;6175947;23;20198;-84
2023/04/06 11:47:15;;;;;;;7.67;6.30;;;13.00;99.90;;;;;;6175657;23;20571;-88
2023/04/06 11:49:47;;;;;;;7.43;5.17;;;13.10;99.90;;;;;;6175563;23;20606;-86
2023/04/06 11:52:20;;;;;;;7.13;5.03;;;12.70;99.90;;;;;;6176743;23;20143;-84
2023/04/06 11:54:48;;;;;;;8.40;5.20;;;12.70;99.90;;;;;;6174437;23;20253;-85
2023/04/06 11:57:14;;;;;;;10.80;6.83;;;12.70;99.90;;;;;;6174489;23;20217;-85
2023/04/06 11:59:40;;;;;;;9.83;6.70;;;12.80;99.90;;;;;;6175604;23;20618;-89
2023/04/06 12:02:06;;;;;;;7.50;5.47;;;13.00;99.90;;;;;;6174217;23;20190;-85
2023/04/06 12:04:32;;;;;;;10.37;6.17;;;13.20;99.90;;;;;;6176768;23;20164;-88
2023/04/06 12:06:58;;;;;;;12.77;6.03;;;13.50;99.90;;;;;;6174074;23;20257;-86
2023/04/06 12:09:24;;;;;;;13.77;6.17;;;13.40;99.90;;;;;;6197006;23;20704;-93
2023/04/06 12:11:50;;;;;;;8.30;6.70;;;13.10;99.90;;;;;;6228978;23;20413;-86
2023/04/06 12:14:16;;;;;;;9.67;5.97;;;13.00;99.90;;;;;;6229086;23;20241;-89
2023/04/06 12:16:42;;;;;;;7.47;3.67;;;13.10;99.90;;;;;;6205230;23;20581;-86
2023/04/06 12:19:08;;;;;;;7.00;4.17;;;13.00;99.90;;;;;;6226174;23;20209;-84
2023/04/06 12:21:37;;;;;;;6.80;4.20;;;13.10;99.90;;;;;;6204007;23;20197;-83
2023/04/06 12:24:04;;;;;;;5.27;4.37;;;13.10;99.90;;;;;;6205741;23;20197;-83
2023/04/06 12:26:30;;;;;;;7.20;4.27;;;12.90;99.90;;;;;;6205008;23;20255;-83
2023/04/06 12:28:57;;;;;;;7.87;4.40;;;13.00;99.90;;;;;;6203461;23;20186;-83
2023/04/06 12:31:25;;;;;;;9.33;4.70;;;13.00;99.90;;;;;;6204307;23;20212;-84
2023/04/06 12:33:51;;;;;;;6.77;4.23;;;13.10;99.90;;;;;;6202972;23;20676;-87
2023/04/06 12:36:19;;;;;;;10.37;5.07;;;13.00;99.90;;;;;;6203342;23;20700;-83
2023/04/06 12:38:48;;;;;;;10.07;5.43;;;12.70;99.90;;;;;;6227843;23;20202;-83
2023/04/06 12:41:14;;;;;;;10.13;4.43;;;13.00;99.90;;;;;;6203277;23;20273;-84
2023/04/06 12:43:43;;;;;;;6.60;5.17;;;12.90;99.90;;;;;;6203001;23;20201;-84
2023/04/06 12:46:09;;;;;;;8.63;4.90;;;12.90;99.90;;;;;;6228673;23;20150;-87
2023/04/06 12:48:35;;;;;;;10.93;5.17;;;12.60;99.90;;;;;;6205058;23;20692;-85
2023/04/06 12:51:05;;;;;;;8.57;5.07;;;12.40;99.90;;;;;;6204603;23;20189;-83
2023/04/06 12:53:32;;;;;;;7.90;4.77;;;12.10;99.90;;;;;;6228560;23;20198;-83